Weddell Sea — WDG2226 — position and weather

sailwx.info

Track history (hours):
 
Tides and Currents Weather Stations Pressure Air Temp Water Temp Dewpoint Dewpoint Depression Visibility Wind Speed Wind Dir Waves Ship Positions

Weddell Sea

Owner: Kirby Offshore Marine, LLC, Staten Island, NY. More information available from US FCC via Universal Licensing System and Coast Guard Vessel Documentation Center.

Last reported at 2017-Dec-11 17:00 UTC. Time now 2017-Dec-12 06:20 UTC.
Position N 40°42' W 074°02'.

Length 128 m; draft 6.2 m.

Type: . MMSI: 367175780.

Date/timePositionNaut miles runAvg speedWind from/ knotsBaromVisibWave heightAir tempDewpointWater temp
2017-Dec-11 17:00N 40°42' W 074°02'1 2.3
2017-Dec-11 16:30N 40°42' W 074°00'3 5.8
2017-Dec-11 16:00N 40°45' W 073°58'4 7.4
2017-Dec-11 15:30N 40°47' W 073°55'4 7.1
2017-Dec-11 14:59N 40°48' W 073°50'3 5.7
2017-Dec-11 14:29N 40°49' W 073°47'4 7.3
2017-Dec-11 14:00N 40°52' W 073°44'42 8.1
2017-Dec-11 08:52N 41°11' W 072°55'33 1.0
2017-Dec-09 22:26N 40°57' W 073°34'4 6.8
2017-Dec-09 21:51N 40°55' W 073°39'2 6.6
2017-Dec-09 21:29N 40°54' W 073°42'3 6.6
2017-Dec-09 21:00N 40°52' W 073°45'3 6.1
2017-Dec-09 20:29N 40°49' W 073°47'2 3.9
2017-Dec-09 20:00N 40°48' W 073°49'3 6.4
2017-Dec-09 19:29N 40°48' W 073°54'3 5.5
2017-Dec-09 19:00N 40°46' W 073°56'3 5.5
2017-Dec-09 18:30N 40°44' W 073°58'3 5.5
2017-Dec-09 18:00N 40°42' W 074°00'2 4.5
2017-Dec-09 17:30N 40°40' W 074°02'2 3.7
2017-Dec-09 17:00N 40°39' W 074°03'1 1.3
2017-Dec-09 16:28N 40°38' W 074°04'0 0.5
2017-Dec-09 15:58N 40°38' W 074°04'1 1.2
2017-Dec-09 15:28N 40°37' W 074°03'0 0.6
2017-Dec-09 14:58N 40°37' W 074°03'0 0.5
2017-Dec-09 14:28N 40°37' W 074°03'0 0.1
2017-Dec-09 13:58N 40°37' W 074°03'0 0.1
2017-Dec-09 13:28N 40°37' W 074°03'0 0.0
2017-Dec-09 12:58N 40°37' W 074°03'0 0.1
2017-Dec-09 12:28N 40°37' W 074°03'0 0.0
2017-Dec-09 11:58N 40°37' W 074°03'0 0.0
2017-Dec-09 11:28N 40°37' W 074°03'0 0.0
2017-Dec-09 10:58N 40°37' W 074°03'0 0.0
2017-Dec-09 10:28N 40°37' W 074°03'0 0.0
2017-Dec-09 09:55N 40°37' W 074°03'0 0.0
2017-Dec-09 09:28N 40°37' W 074°03'0 0.0
2017-Dec-09 08:58N 40°37' W 074°03'0 0.0
2017-Dec-09 08:22N 40°37' W 074°03'0 0.2
2017-Dec-09 07:58N 40°37' W 074°03'0 0.4
2017-Dec-09 07:28N 40°37' W 074°03'0 0.1
2017-Dec-09 06:58N 40°37' W 074°03'0 0.0
2017-Dec-09 06:28N 40°37' W 074°03'0 0.0
2017-Dec-09 05:58N 40°37' W 074°03'0 0.0
2017-Dec-09 05:22N 40°37' W 074°03'0 0.0
2017-Dec-09 04:55N 40°37' W 074°03'0 0.0
2017-Dec-09 04:28N 40°37' W 074°03'0 0.1
2017-Dec-09 03:58N 40°37' W 074°03'0 0.0
2017-Dec-09 03:28N 40°37' W 074°03'0 0.1
2017-Dec-09 02:55N 40°37' W 074°03'0 0.1
2017-Dec-09 02:28N 40°37' W 074°03'0 0.4
2017-Dec-09 01:58N 40°37' W 074°03'0 0.1
2017-Dec-09 01:28N 40°37' W 074°03'0 0.0
2017-Dec-09 00:58N 40°37' W 074°03'0 0.0
2017-Dec-09 00:28N 40°37' W 074°03'0 0.0
2017-Dec-08 23:58N 40°37' W 074°03'0 0.0
2017-Dec-08 23:28N 40°37' W 074°03'0 0.1
2017-Dec-08 23:00N 40°37' W 074°03'0 0.0
2017-Dec-08 22:30N 40°37' W 074°03'0 0.1
2017-Dec-08 22:00N 40°37' W 074°03'0 0.3
2017-Dec-08 21:31N 40°36' W 074°03'1 1.0
2017-Dec-08 21:00N 40°37' W 074°03'0 0.9
2017-Dec-08 20:31N 40°37' W 074°03'2 3.8
2017-Dec-08 20:01N 40°39' W 074°03'0 0.3
2017-Dec-08 19:29N 40°39' W 074°03'0 0.1
2017-Dec-08 18:59N 40°39' W 074°03'0 0.1
2017-Dec-08 18:29N 40°39' W 074°03'0 0.0
2017-Dec-08 17:59N 40°39' W 074°03'0 0.0
2017-Dec-08 17:29N 40°39' W 074°03'0 0.1
2017-Dec-08 16:59N 40°39' W 074°03'0 0.0
2017-Dec-08 16:29N 40°39' W 074°03'0 0.0
2017-Dec-08 15:59N 40°39' W 074°03'0 0.0
2017-Dec-08 15:29N 40°39' W 074°03'0 0.1
2017-Dec-08 14:59N 40°39' W 074°03'0 0.1
2017-Dec-08 14:29N 40°39' W 074°03'0 0.1
2017-Dec-08 13:56N 40°39' W 074°03'0 0.0
2017-Dec-08 13:29N 40°39' W 074°03'0 0.1
2017-Dec-08 12:59N 40°39' W 074°03'0 0.0
2017-Dec-08 12:29N 40°39' W 074°03'0 0.1
2017-Dec-08 11:59N 40°39' W 074°03'0 0.0
2017-Dec-08 11:29N 40°39' W 074°03'0 0.0
2017-Dec-08 10:59N 40°39' W 074°03'0 0.0
2017-Dec-08 10:29N 40°39' W 074°03'0 0.0
2017-Dec-08 09:59N 40°39' W 074°03'0 0.0
2017-Dec-08 09:29N 40°39' W 074°03'0 0.0
2017-Dec-08 08:59N 40°39' W 074°03'0 0.0
2017-Dec-08 08:29N 40°39' W 074°03'0 0.1
2017-Dec-08 07:59N 40°39' W 074°03'0 0.1
2017-Dec-08 07:29N 40°39' W 074°03'0 0.0
2017-Dec-08 06:59N 40°39' W 074°03'0 0.1
2017-Dec-08 06:29N 40°39' W 074°03'0 0.0
2017-Dec-08 05:59N 40°39' W 074°03'0 0.0
2017-Dec-08 05:29N 40°39' W 074°03'0 0.0
2017-Dec-08 04:59N 40°39' W 074°03'0 0.0
2017-Dec-08 04:29N 40°39' W 074°03'0 0.0
2017-Dec-08 03:59N 40°39' W 074°03'0 0.1
2017-Dec-08 03:29N 40°39' W 074°03'0 0.0
2017-Dec-08 02:59N 40°39' W 074°03'0 0.0
2017-Dec-08 02:29N 40°39' W 074°03'0 0.0
2017-Dec-08 01:59N 40°39' W 074°03'0 0.1
2017-Dec-08 01:29N 40°39' W 074°03'0 0.0
2017-Dec-08 00:59N 40°39' W 074°03'0 0.0
2017-Dec-08 00:29N 40°39' W 074°03'0 0.2
2017-Dec-07 23:59N 40°39' W 074°03'0 0.1
2017-Dec-07 23:29N 40°39' W 074°03'0 0.0
2017-Dec-07 22:59N 40°39' W 074°03'0 0.0
2017-Dec-07 22:29N 40°39' W 074°03'0 0.0
2017-Dec-07 21:59N 40°39' W 074°03'0 0.0
2017-Dec-07 21:29N 40°39' W 074°03'0 0.1
2017-Dec-07 20:59N 40°39' W 074°03'0 0.1
2017-Dec-07 20:29N 40°39' W 074°03'0 0.1
2017-Dec-07 19:59N 40°39' W 074°03'0 0.0
2017-Dec-07 19:29N 40°39' W 074°03'0 0.1
2017-Dec-07 18:59N 40°39' W 074°03'0 0.0
2017-Dec-07 18:29N 40°39' W 074°03'0 0.1
2017-Dec-07 17:59N 40°39' W 074°03'0 0.1
2017-Dec-07 17:29N 40°39' W 074°03'0 0.1
2017-Dec-07 16:59N 40°39' W 074°03'0 0.0
2017-Dec-07 16:29N 40°39' W 074°03'0 0.0
2017-Dec-07 15:59N 40°39' W 074°03'0 0.0
2017-Dec-07 15:29N 40°39' W 074°03'0 0.0
2017-Dec-07 14:56N 40°39' W 074°03'0 0.0
2017-Dec-07 14:29N 40°39' W 074°03'0 0.0
2017-Dec-07 13:59N 40°39' W 074°03'0 0.1
2017-Dec-07 13:29N 40°39' W 074°03'0 0.0
2017-Dec-07 12:59N 40°39' W 074°03'0 0.0
2017-Dec-07 12:29N 40°39' W 074°03'0 0.1
2017-Dec-07 11:59N 40°39' W 074°03'0 0.1
2017-Dec-07 11:29N 40°39' W 074°03'0 0.0
2017-Dec-07 10:59N 40°39' W 074°03'0 0.0
2017-Dec-07 10:29N 40°39' W 074°03'0 0.0
2017-Dec-07 09:59N 40°39' W 074°03'0 0.0
2017-Dec-07 09:29N 40°39' W 074°03'0 0.0
2017-Dec-07 08:59N 40°39' W 074°03'0 0.1
2017-Dec-07 08:29N 40°39' W 074°03'0 0.0
2017-Dec-07 07:59N 40°39' W 074°03'0 0.1
2017-Dec-07 07:29N 40°39' W 074°03'0 0.1
2017-Dec-07 06:59N 40°39' W 074°03'0 0.0
2017-Dec-07 06:29N 40°39' W 074°03'0 0.0
2017-Dec-07 05:59N 40°39' W 074°03'0 0.0
2017-Dec-07 05:29N 40°39' W 074°03'0 0.0
2017-Dec-07 04:59N 40°39' W 074°03'0 0.0
2017-Dec-07 04:29N 40°39' W 074°03'0 0.0
2017-Dec-07 03:59N 40°39' W 074°03'0 0.1
2017-Dec-07 03:29N 40°39' W 074°03'0 0.0
2017-Dec-07 02:59N 40°39' W 074°03'0 0.0
2017-Dec-07 02:29N 40°39' W 074°03'0 0.0
2017-Dec-07 01:59N 40°39' W 074°03'0 0.0
2017-Dec-07 01:29N 40°39' W 074°03'0 0.0
2017-Dec-07 00:59N 40°39' W 074°03'0 0.1
2017-Dec-07 00:29N 40°39' W 074°03'0 0.0
2017-Dec-06 23:59N 40°39' W 074°03'0 0.2
2017-Dec-06 23:29N 40°39' W 074°03'0 0.0
2017-Dec-06 22:59N 40°39' W 074°03'0 0.0
2017-Dec-06 22:29N 40°39' W 074°03'0 0.1
2017-Dec-06 21:59N 40°39' W 074°03'0 0.0
2017-Dec-06 21:29N 40°39' W 074°03'0 0.1
2017-Dec-06 20:59N 40°39' W 074°03'  
2017-Dec-04 10:23N 40°39' W 074°07'0 0.0
2017-Dec-04 09:59N 40°39' W 074°07'0 0.0
2017-Dec-04 09:29N 40°39' W 074°07'0 0.0
2017-Dec-04 08:59N 40°39' W 074°07'0 0.0
2017-Dec-04 08:29N 40°39' W 074°07'0 0.0
2017-Dec-04 07:59N 40°39' W 074°07'0 0.0
2017-Dec-04 07:29N 40°39' W 074°07'0 0.0
2017-Dec-04 06:59N 40°39' W 074°07'0 0.0
2017-Dec-04 06:29N 40°39' W 074°07'0 0.0
2017-Dec-04 05:59N 40°39' W 074°07'0 0.0
2017-Dec-04 05:29N 40°39' W 074°07'0 0.0
2017-Dec-04 04:59N 40°39' W 074°07'0 0.0
2017-Dec-04 04:29N 40°39' W 074°07'0 0.0
2017-Dec-04 03:59N 40°39' W 074°07'0 0.0
2017-Dec-04 03:29N 40°39' W 074°07'0 0.0
2017-Dec-04 02:59N 40°39' W 074°07'0 0.0
2017-Dec-04 02:29N 40°39' W 074°07'0 0.0
2017-Dec-04 01:59N 40°39' W 074°07'0 0.0
2017-Dec-04 01:29N 40°39' W 074°07'0 0.0
2017-Dec-04 00:59N 40°39' W 074°07'0 0.0
2017-Dec-04 00:29N 40°39' W 074°07'0 0.0
2017-Dec-03 23:59N 40°39' W 074°07'0 0.0
2017-Dec-03 23:29N 40°39' W 074°07'0 0.0
2017-Dec-03 22:59N 40°39' W 074°07'0 0.0
2017-Dec-03 22:29N 40°39' W 074°07'0 0.0
2017-Dec-03 21:59N 40°39' W 074°07'0 0.0
2017-Dec-03 21:29N 40°39' W 074°07'0 0.0
2017-Dec-03 20:59N 40°39' W 074°07'0 0.0
2017-Dec-03 20:29N 40°39' W 074°07'0 0.0
2017-Dec-03 19:56N 40°39' W 074°07'0 0.0
2017-Dec-03 19:29N 40°39' W 074°07'0 0.0
2017-Dec-03 18:59N 40°39' W 074°07'0 0.0
2017-Dec-03 18:29N 40°39' W 074°07'0 0.0
2017-Dec-03 17:56N 40°38' W 074°07'0 0.0
2017-Dec-03 17:29N 40°39' W 074°07'0 0.0
2017-Dec-03 16:59N 40°39' W 074°07'0 0.0
2017-Dec-03 16:29N 40°38' W 074°07'0 0.0
2017-Dec-03 15:56N 40°39' W 074°07'0 0.0
2017-Dec-03 15:26N 40°39' W 074°07'0 0.0
2017-Dec-03 14:56N 40°39' W 074°07'0 0.0
2017-Dec-03 14:26N 40°39' W 074°07'0 0.0
2017-Dec-03 13:59N 40°39' W 074°07'0 0.0
2017-Dec-03 13:29N 40°39' W 074°07'0 0.0
2017-Dec-03 12:59N 40°39' W 074°07'0 0.0
2017-Dec-03 12:29N 40°39' W 074°07'0 0.0
2017-Dec-03 11:59N 40°39' W 074°07'0 0.0
2017-Dec-03 11:29N 40°39' W 074°07'0 0.0
2017-Dec-03 10:59N 40°39' W 074°07'0 0.0
2017-Dec-03 10:29N 40°39' W 074°07'0 0.0
2017-Dec-03 09:59N 40°39' W 074°07'0 0.0
2017-Dec-03 09:26N 40°39' W 074°07'0 0.0
2017-Dec-03 08:59N 40°39' W 074°07'0 0.0
2017-Dec-03 08:29N 40°39' W 074°07'0 0.0
2017-Dec-03 07:59N 40°39' W 074°07'0 0.0
2017-Dec-03 07:29N 40°39' W 074°07'0 0.0
2017-Dec-03 06:59N 40°39' W 074°07'0 0.0
2017-Dec-03 06:29N 40°39' W 074°07'0 0.0
2017-Dec-03 05:59N 40°39' W 074°07'0 0.0
2017-Dec-03 05:29N 40°39' W 074°07'0 0.0
2017-Dec-03 04:59N 40°39' W 074°07'0 0.0
2017-Dec-03 04:29N 40°39' W 074°07'0 0.0
2017-Dec-03 03:59N 40°39' W 074°07'0 0.0
2017-Dec-03 03:29N 40°39' W 074°07'0 0.0
2017-Dec-03 02:59N 40°39' W 074°07'0 0.0
2017-Dec-03 02:29N 40°39' W 074°07'0 0.0
2017-Dec-03 01:56N 40°39' W 074°07'0 0.0
2017-Dec-03 01:29N 40°39' W 074°07'0 0.0
2017-Dec-03 00:59N 40°39' W 074°07'0 0.0
2017-Dec-03 00:29N 40°39' W 074°07'0 0.0
2017-Dec-02 23:59N 40°39' W 074°07'0 0.0
2017-Dec-02 23:29N 40°39' W 074°07'0 0.0
2017-Dec-02 22:59N 40°39' W 074°07'0 0.0
2017-Dec-02 22:29N 40°39' W 074°07'0 0.0
2017-Dec-02 21:59N 40°39' W 074°07'0 0.0
2017-Dec-02 21:29N 40°39' W 074°07'0 0.0
2017-Dec-02 20:59N 40°39' W 074°07'0 0.0
2017-Dec-02 20:29N 40°39' W 074°07'0 0.0
2017-Dec-02 19:59N 40°39' W 074°07'0 0.0
2017-Dec-02 19:29N 40°39' W 074°07'0 0.0
2017-Dec-02 18:59N 40°39' W 074°07'0 0.0
2017-Dec-02 18:29N 40°39' W 074°07'0 0.0
2017-Dec-02 17:59N 40°39' W 074°07'0 0.0
2017-Dec-02 17:29N 40°38' W 074°07'0 0.0
2017-Dec-02 16:59N 40°39' W 074°07'0 0.0
2017-Dec-02 16:29N 40°39' W 074°07'0 0.0
2017-Dec-02 15:59N 40°39' W 074°07'0 0.0
2017-Dec-02 15:29N 40°39' W 074°07'0 0.0
2017-Dec-02 14:59N 40°39' W 074°07'0 0.0
2017-Dec-02 14:29N 40°39' W 074°07'0 0.0
2017-Dec-02 13:59N 40°39' W 074°07'0 0.0
2017-Dec-02 13:29N 40°39' W 074°07'0 0.0
2017-Dec-02 12:59N 40°39' W 074°07'0 0.0
2017-Dec-02 12:29N 40°39' W 074°07'0 0.0
2017-Dec-02 11:59N 40°39' W 074°07'0 0.0
2017-Dec-02 11:29N 40°39' W 074°07'0 0.0
2017-Dec-02 10:59N 40°39' W 074°07'0 0.0
2017-Dec-02 10:29N 40°39' W 074°07'0 0.0
2017-Dec-02 10:00N 40°39' W 074°07'0 0.0
2017-Dec-02 09:30N 40°39' W 074°07'0 0.0
2017-Dec-02 09:00N 40°39' W 074°07'0 0.0
2017-Dec-02 08:30N 40°39' W 074°07'0 0.0
2017-Dec-02 08:00N 40°39' W 074°07'0 0.0
2017-Dec-02 07:30N 40°39' W 074°07'0 0.0
2017-Dec-02 07:00N 40°39' W 074°07'0 0.0
2017-Dec-02 06:30N 40°39' W 074°07'0 0.0
2017-Dec-02 06:00N 40°39' W 074°07'0 0.0
2017-Dec-02 05:30N 40°39' W 074°07'0 0.0
2017-Dec-02 05:00N 40°39' W 074°07'0 0.0
2017-Dec-02 04:30N 40°39' W 074°07'0 0.0
2017-Dec-02 04:00N 40°39' W 074°07'0 0.0
2017-Dec-02 03:30N 40°39' W 074°07'0 0.0
2017-Dec-02 03:00N 40°39' W 074°07'0 0.0
2017-Dec-02 02:30N 40°38' W 074°07'0 0.0
2017-Dec-02 02:00N 40°39' W 074°07'0 0.0
2017-Dec-02 01:30N 40°39' W 074°07'0 0.0
2017-Dec-02 01:00N 40°39' W 074°07'0 0.0
2017-Dec-02 00:30N 40°39' W 074°07'0 0.0
2017-Dec-02 00:00N 40°39' W 074°07'0 0.0
2017-Dec-01 23:30N 40°39' W 074°07'0 0.0
2017-Dec-01 23:00N 40°39' W 074°07'0 0.0
2017-Dec-01 22:30N 40°39' W 074°07'0 0.0
2017-Dec-01 22:00N 40°39' W 074°07'0 0.0
2017-Dec-01 21:30N 40°39' W 074°07'0 0.0
2017-Dec-01 21:00N 40°39' W 074°07'0 0.0
2017-Dec-01 20:30N 40°39' W 074°07'0 0.0
2017-Dec-01 20:00N 40°39' W 074°07'0 0.0
2017-Dec-01 19:30N 40°39' W 074°07'0 0.1
2017-Dec-01 19:00N 40°39' W 074°07'3 5.0
2017-Dec-01 18:30N 40°40' W 074°04'0 0.1
2017-Dec-01 18:00N 40°40' W 074°04'2 3.2
2017-Dec-01 17:30N 40°40' W 074°02'0 0.1
2017-Dec-01 17:00N 40°40' W 074°02'  
Track history (hours):
 
Tides and Currents Weather Stations Pressure Air Temp Water Temp Dewpoint Dewpoint Depression Visibility Wind Speed Wind Dir Waves Ship Positions

Weddell Sea

Owner: Kirby Offshore Marine, LLC, Staten Island, NY. More information available from US FCC via Universal Licensing System and Coast Guard Vessel Documentation Center.

Last reported at 2017-Dec-11 17:00 UTC. Time now 2017-Dec-12 06:20 UTC.
Position N 40°42' W 074°02'.

Length 128 m; draft 6.2 m.

Type: . MMSI: 367175780.

Date/timePositionNaut miles runAvg speedWind from/ knotsBaromVisibWave heightAir tempDewpointWater temp
2017-Dec-11 17:00N 40°42' W 074°02'1 2.3
2017-Dec-11 16:30N 40°42' W 074°00'3 5.8
2017-Dec-11 16:00N 40°45' W 073°58'4 7.4
2017-Dec-11 15:30N 40°47' W 073°55'4 7.1
2017-Dec-11 14:59N 40°48' W 073°50'3 5.7
2017-Dec-11 14:29N 40°49' W 073°47'4 7.3
2017-Dec-11 14:00N 40°52' W 073°44'42 8.1
2017-Dec-11 08:52N 41°11' W 072°55'33 1.0
2017-Dec-09 22:26N 40°57' W 073°34'4 6.8
2017-Dec-09 21:51N 40°55' W 073°39'2 6.6
2017-Dec-09 21:29N 40°54' W 073°42'3 6.6
2017-Dec-09 21:00N 40°52' W 073°45'3 6.1
2017-Dec-09 20:29N 40°49' W 073°47'2 3.9
2017-Dec-09 20:00N 40°48' W 073°49'3 6.4
2017-Dec-09 19:29N 40°48' W 073°54'3 5.5
2017-Dec-09 19:00N 40°46' W 073°56'3 5.5
2017-Dec-09 18:30N 40°44' W 073°58'3 5.5
2017-Dec-09 18:00N 40°42' W 074°00'2 4.5
2017-Dec-09 17:30N 40°40' W 074°02'2 3.7
2017-Dec-09 17:00N 40°39' W 074°03'1 1.3
2017-Dec-09 16:28N 40°38' W 074°04'0 0.5
2017-Dec-09 15:58N 40°38' W 074°04'1 1.2
2017-Dec-09 15:28N 40°37' W 074°03'0 0.6
2017-Dec-09 14:58N 40°37' W 074°03'0 0.5
2017-Dec-09 14:28N 40°37' W 074°03'0 0.1
2017-Dec-09 13:58N 40°37' W 074°03'0 0.1
2017-Dec-09 13:28N 40°37' W 074°03'0 0.0
2017-Dec-09 12:58N 40°37' W 074°03'0 0.1
2017-Dec-09 12:28N 40°37' W 074°03'0 0.0
2017-Dec-09 11:58N 40°37' W 074°03'0 0.0
2017-Dec-09 11:28N 40°37' W 074°03'0 0.0
2017-Dec-09 10:58N 40°37' W 074°03'0 0.0
2017-Dec-09 10:28N 40°37' W 074°03'0 0.0
2017-Dec-09 09:55N 40°37' W 074°03'0 0.0
2017-Dec-09 09:28N 40°37' W 074°03'0 0.0
2017-Dec-09 08:58N 40°37' W 074°03'0 0.0
2017-Dec-09 08:22N 40°37' W 074°03'0 0.2
2017-Dec-09 07:58N 40°37' W 074°03'0 0.4
2017-Dec-09 07:28N 40°37' W 074°03'0 0.1
2017-Dec-09 06:58N 40°37' W 074°03'0 0.0
2017-Dec-09 06:28N 40°37' W 074°03'0 0.0
2017-Dec-09 05:58N 40°37' W 074°03'0 0.0
2017-Dec-09 05:22N 40°37' W 074°03'0 0.0
2017-Dec-09 04:55N 40°37' W 074°03'0 0.0
2017-Dec-09 04:28N 40°37' W 074°03'0 0.1
2017-Dec-09 03:58N 40°37' W 074°03'0 0.0
2017-Dec-09 03:28N 40°37' W 074°03'0 0.1
2017-Dec-09 02:55N 40°37' W 074°03'0 0.1
2017-Dec-09 02:28N 40°37' W 074°03'0 0.4
2017-Dec-09 01:58N 40°37' W 074°03'0 0.1
2017-Dec-09 01:28N 40°37' W 074°03'0 0.0
2017-Dec-09 00:58N 40°37' W 074°03'0 0.0
2017-Dec-09 00:28N 40°37' W 074°03'0 0.0
2017-Dec-08 23:58N 40°37' W 074°03'0 0.0
2017-Dec-08 23:28N 40°37' W 074°03'0 0.1
2017-Dec-08 23:00N 40°37' W 074°03'0 0.0
2017-Dec-08 22:30N 40°37' W 074°03'0 0.1
2017-Dec-08 22:00N 40°37' W 074°03'0 0.3
2017-Dec-08 21:31N 40°36' W 074°03'1 1.0
2017-Dec-08 21:00N 40°37' W 074°03'0 0.9
2017-Dec-08 20:31N 40°37' W 074°03'2 3.8
2017-Dec-08 20:01N 40°39' W 074°03'0 0.3
2017-Dec-08 19:29N 40°39' W 074°03'0 0.1
2017-Dec-08 18:59N 40°39' W 074°03'0 0.1
2017-Dec-08 18:29N 40°39' W 074°03'0 0.0
2017-Dec-08 17:59N 40°39' W 074°03'0 0.0
2017-Dec-08 17:29N 40°39' W 074°03'0 0.1
2017-Dec-08 16:59N 40°39' W 074°03'0 0.0
2017-Dec-08 16:29N 40°39' W 074°03'0 0.0
2017-Dec-08 15:59N 40°39' W 074°03'0 0.0
2017-Dec-08 15:29N 40°39' W 074°03'0 0.1
2017-Dec-08 14:59N 40°39' W 074°03'0 0.1
2017-Dec-08 14:29N 40°39' W 074°03'0 0.1
2017-Dec-08 13:56N 40°39' W 074°03'0 0.0
2017-Dec-08 13:29N 40°39' W 074°03'0 0.1
2017-Dec-08 12:59N 40°39' W 074°03'0 0.0
2017-Dec-08 12:29N 40°39' W 074°03'0 0.1
2017-Dec-08 11:59N 40°39' W 074°03'0 0.0
2017-Dec-08 11:29N 40°39' W 074°03'0 0.0
2017-Dec-08 10:59N 40°39' W 074°03'0 0.0
2017-Dec-08 10:29N 40°39' W 074°03'0 0.0
2017-Dec-08 09:59N 40°39' W 074°03'0 0.0
2017-Dec-08 09:29N 40°39' W 074°03'0 0.0
2017-Dec-08 08:59N 40°39' W 074°03'0 0.0
2017-Dec-08 08:29N 40°39' W 074°03'0 0.1
2017-Dec-08 07:59N 40°39' W 074°03'0 0.1
2017-Dec-08 07:29N 40°39' W 074°03'0 0.0
2017-Dec-08 06:59N 40°39' W 074°03'0 0.1
2017-Dec-08 06:29N 40°39' W 074°03'0 0.0
2017-Dec-08 05:59N 40°39' W 074°03'0 0.0
2017-Dec-08 05:29N 40°39' W 074°03'0 0.0
2017-Dec-08 04:59N 40°39' W 074°03'0 0.0
2017-Dec-08 04:29N 40°39' W 074°03'0 0.0
2017-Dec-08 03:59N 40°39' W 074°03'0 0.1
2017-Dec-08 03:29N 40°39' W 074°03'0 0.0
2017-Dec-08 02:59N 40°39' W 074°03'0 0.0
2017-Dec-08 02:29N 40°39' W 074°03'0 0.0
2017-Dec-08 01:59N 40°39' W 074°03'0 0.1
2017-Dec-08 01:29N 40°39' W 074°03'0 0.0
2017-Dec-08 00:59N 40°39' W 074°03'0 0.0
2017-Dec-08 00:29N 40°39' W 074°03'0 0.2
2017-Dec-07 23:59N 40°39' W 074°03'0 0.1
2017-Dec-07 23:29N 40°39' W 074°03'0 0.0
2017-Dec-07 22:59N 40°39' W 074°03'0 0.0
2017-Dec-07 22:29N 40°39' W 074°03'0 0.0
2017-Dec-07 21:59N 40°39' W 074°03'0 0.0
2017-Dec-07 21:29N 40°39' W 074°03'0 0.1
2017-Dec-07 20:59N 40°39' W 074°03'0 0.1
2017-Dec-07 20:29N 40°39' W 074°03'0 0.1
2017-Dec-07 19:59N 40°39' W 074°03'0 0.0
2017-Dec-07 19:29N 40°39' W 074°03'0 0.1
2017-Dec-07 18:59N 40°39' W 074°03'0 0.0
2017-Dec-07 18:29N 40°39' W 074°03'0 0.1
2017-Dec-07 17:59N 40°39' W 074°03'0 0.1
2017-Dec-07 17:29N 40°39' W 074°03'0 0.1
2017-Dec-07 16:59N 40°39' W 074°03'0 0.0
2017-Dec-07 16:29N 40°39' W 074°03'0 0.0
2017-Dec-07 15:59N 40°39' W 074°03'0 0.0
2017-Dec-07 15:29N 40°39' W 074°03'0 0.0
2017-Dec-07 14:56N 40°39' W 074°03'0 0.0
2017-Dec-07 14:29N 40°39' W 074°03'0 0.0
2017-Dec-07 13:59N 40°39' W 074°03'0 0.1
2017-Dec-07 13:29N 40°39' W 074°03'0 0.0
2017-Dec-07 12:59N 40°39' W 074°03'0 0.0
2017-Dec-07 12:29N 40°39' W 074°03'0 0.1
2017-Dec-07 11:59N 40°39' W 074°03'0 0.1
2017-Dec-07 11:29N 40°39' W 074°03'0 0.0
2017-Dec-07 10:59N 40°39' W 074°03'0 0.0
2017-Dec-07 10:29N 40°39' W 074°03'0 0.0
2017-Dec-07 09:59N 40°39' W 074°03'0 0.0
2017-Dec-07 09:29N 40°39' W 074°03'0 0.0
2017-Dec-07 08:59N 40°39' W 074°03'0 0.1
2017-Dec-07 08:29N 40°39' W 074°03'0 0.0
2017-Dec-07 07:59N 40°39' W 074°03'0 0.1
2017-Dec-07 07:29N 40°39' W 074°03'0 0.1
2017-Dec-07 06:59N 40°39' W 074°03'0 0.0
2017-Dec-07 06:29N 40°39' W 074°03'0 0.0
2017-Dec-07 05:59N 40°39' W 074°03'0 0.0
2017-Dec-07 05:29N 40°39' W 074°03'0 0.0
2017-Dec-07 04:59N 40°39' W 074°03'0 0.0
2017-Dec-07 04:29N 40°39' W 074°03'0 0.0
2017-Dec-07 03:59N 40°39' W 074°03'0 0.1
2017-Dec-07 03:29N 40°39' W 074°03'0 0.0
2017-Dec-07 02:59N 40°39' W 074°03'0 0.0
2017-Dec-07 02:29N 40°39' W 074°03'0 0.0
2017-Dec-07 01:59N 40°39' W 074°03'0 0.0
2017-Dec-07 01:29N 40°39' W 074°03'0 0.0
2017-Dec-07 00:59N 40°39' W 074°03'0 0.1
2017-Dec-07 00:29N 40°39' W 074°03'0 0.0
2017-Dec-06 23:59N 40°39' W 074°03'0 0.2
2017-Dec-06 23:29N 40°39' W 074°03'0 0.0
2017-Dec-06 22:59N 40°39' W 074°03'0 0.0
2017-Dec-06 22:29N 40°39' W 074°03'0 0.1
2017-Dec-06 21:59N 40°39' W 074°03'0 0.0
2017-Dec-06 21:29N 40°39' W 074°03'0 0.1
2017-Dec-06 20:59N 40°39' W 074°03'  
2017-Dec-04 10:23N 40°39' W 074°07'0 0.0
2017-Dec-04 09:59N 40°39' W 074°07'0 0.0
2017-Dec-04 09:29N 40°39' W 074°07'0 0.0
2017-Dec-04 08:59N 40°39' W 074°07'0 0.0
2017-Dec-04 08:29N 40°39' W 074°07'0 0.0
2017-Dec-04 07:59N 40°39' W 074°07'0 0.0
2017-Dec-04 07:29N 40°39' W 074°07'0 0.0
2017-Dec-04 06:59N 40°39' W 074°07'0 0.0
2017-Dec-04 06:29N 40°39' W 074°07'0 0.0
2017-Dec-04 05:59N 40°39' W 074°07'0 0.0
2017-Dec-04 05:29N 40°39' W 074°07'0 0.0
2017-Dec-04 04:59N 40°39' W 074°07'0 0.0
2017-Dec-04 04:29N 40°39' W 074°07'0 0.0
2017-Dec-04 03:59N 40°39' W 074°07'0 0.0
2017-Dec-04 03:29N 40°39' W 074°07'0 0.0
2017-Dec-04 02:59N 40°39' W 074°07'0 0.0
2017-Dec-04 02:29N 40°39' W 074°07'0 0.0
2017-Dec-04 01:59N 40°39' W 074°07'0 0.0
2017-Dec-04 01:29N 40°39' W 074°07'0 0.0
2017-Dec-04 00:59N 40°39' W 074°07'0 0.0
2017-Dec-04 00:29N 40°39' W 074°07'0 0.0
2017-Dec-03 23:59N 40°39' W 074°07'0 0.0
2017-Dec-03 23:29N 40°39' W 074°07'0 0.0
2017-Dec-03 22:59N 40°39' W 074°07'0 0.0
2017-Dec-03 22:29N 40°39' W 074°07'0 0.0
2017-Dec-03 21:59N 40°39' W 074°07'0 0.0
2017-Dec-03 21:29N 40°39' W 074°07'0 0.0
2017-Dec-03 20:59N 40°39' W 074°07'0 0.0
2017-Dec-03 20:29N 40°39' W 074°07'0 0.0
2017-Dec-03 19:56N 40°39' W 074°07'0 0.0
2017-Dec-03 19:29N 40°39' W 074°07'0 0.0
2017-Dec-03 18:59N 40°39' W 074°07'0 0.0
2017-Dec-03 18:29N 40°39' W 074°07'0 0.0
2017-Dec-03 17:56N 40°38' W 074°07'0 0.0
2017-Dec-03 17:29N 40°39' W 074°07'0 0.0
2017-Dec-03 16:59N 40°39' W 074°07'0 0.0
2017-Dec-03 16:29N 40°38' W 074°07'0 0.0
2017-Dec-03 15:56N 40°39' W 074°07'0 0.0
2017-Dec-03 15:26N 40°39' W 074°07'0 0.0
2017-Dec-03 14:56N 40°39' W 074°07'0 0.0
2017-Dec-03 14:26N 40°39' W 074°07'0 0.0
2017-Dec-03 13:59N 40°39' W 074°07'0 0.0
2017-Dec-03 13:29N 40°39' W 074°07'0 0.0
2017-Dec-03 12:59N 40°39' W 074°07'0 0.0
2017-Dec-03 12:29N 40°39' W 074°07'0 0.0
2017-Dec-03 11:59N 40°39' W 074°07'0 0.0
2017-Dec-03 11:29N 40°39' W 074°07'0 0.0
2017-Dec-03 10:59N 40°39' W 074°07'0 0.0
2017-Dec-03 10:29N 40°39' W 074°07'0 0.0
2017-Dec-03 09:59N 40°39' W 074°07'0 0.0
2017-Dec-03 09:26N 40°39' W 074°07'0 0.0
2017-Dec-03 08:59N 40°39' W 074°07'0 0.0
2017-Dec-03 08:29N 40°39' W 074°07'0 0.0
2017-Dec-03 07:59N 40°39' W 074°07'0 0.0
2017-Dec-03 07:29N 40°39' W 074°07'0 0.0
2017-Dec-03 06:59N 40°39' W 074°07'0 0.0
2017-Dec-03 06:29N 40°39' W 074°07'0 0.0
2017-Dec-03 05:59N 40°39' W 074°07'0 0.0
2017-Dec-03 05:29N 40°39' W 074°07'0 0.0
2017-Dec-03 04:59N 40°39' W 074°07'0 0.0
2017-Dec-03 04:29N 40°39' W 074°07'0 0.0
2017-Dec-03 03:59N 40°39' W 074°07'0 0.0
2017-Dec-03 03:29N 40°39' W 074°07'0 0.0
2017-Dec-03 02:59N 40°39' W 074°07'0 0.0
2017-Dec-03 02:29N 40°39' W 074°07'0 0.0
2017-Dec-03 01:56N 40°39' W 074°07'0 0.0
2017-Dec-03 01:29N 40°39' W 074°07'0 0.0
2017-Dec-03 00:59N 40°39' W 074°07'0 0.0
2017-Dec-03 00:29N 40°39' W 074°07'0 0.0
2017-Dec-02 23:59N 40°39' W 074°07'0 0.0
2017-Dec-02 23:29N 40°39' W 074°07'0 0.0
2017-Dec-02 22:59N 40°39' W 074°07'0 0.0
2017-Dec-02 22:29N 40°39' W 074°07'0 0.0
2017-Dec-02 21:59N 40°39' W 074°07'0 0.0
2017-Dec-02 21:29N 40°39' W 074°07'0 0.0
2017-Dec-02 20:59N 40°39' W 074°07'0 0.0
2017-Dec-02 20:29N 40°39' W 074°07'0 0.0
2017-Dec-02 19:59N 40°39' W 074°07'0 0.0
2017-Dec-02 19:29N 40°39' W 074°07'0 0.0
2017-Dec-02 18:59N 40°39' W 074°07'0 0.0
2017-Dec-02 18:29N 40°39' W 074°07'0 0.0
2017-Dec-02 17:59N 40°39' W 074°07'0 0.0
2017-Dec-02 17:29N 40°38' W 074°07'0 0.0
2017-Dec-02 16:59N 40°39' W 074°07'0 0.0
2017-Dec-02 16:29N 40°39' W 074°07'0 0.0
2017-Dec-02 15:59N 40°39' W 074°07'0 0.0
2017-Dec-02 15:29N 40°39' W 074°07'0 0.0
2017-Dec-02 14:59N 40°39' W 074°07'0 0.0
2017-Dec-02 14:29N 40°39' W 074°07'0 0.0
2017-Dec-02 13:59N 40°39' W 074°07'0 0.0
2017-Dec-02 13:29N 40°39' W 074°07'0 0.0
2017-Dec-02 12:59N 40°39' W 074°07'0 0.0
2017-Dec-02 12:29N 40°39' W 074°07'0 0.0
2017-Dec-02 11:59N 40°39' W 074°07'0 0.0
2017-Dec-02 11:29N 40°39' W 074°07'0 0.0
2017-Dec-02 10:59N 40°39' W 074°07'0 0.0
2017-Dec-02 10:29N 40°39' W 074°07'0 0.0
2017-Dec-02 10:00N 40°39' W 074°07'0 0.0
2017-Dec-02 09:30N 40°39' W 074°07'0 0.0
2017-Dec-02 09:00N 40°39' W 074°07'0 0.0
2017-Dec-02 08:30N 40°39' W 074°07'0 0.0
2017-Dec-02 08:00N 40°39' W 074°07'0 0.0
2017-Dec-02 07:30N 40°39' W 074°07'0 0.0
2017-Dec-02 07:00N 40°39' W 074°07'0 0.0
2017-Dec-02 06:30N 40°39' W 074°07'0 0.0
2017-Dec-02 06:00N 40°39' W 074°07'0 0.0
2017-Dec-02 05:30N 40°39' W 074°07'0 0.0
2017-Dec-02 05:00N 40°39' W 074°07'0 0.0
2017-Dec-02 04:30N 40°39' W 074°07'0 0.0
2017-Dec-02 04:00N 40°39' W 074°07'0 0.0
2017-Dec-02 03:30N 40°39' W 074°07'0 0.0
2017-Dec-02 03:00N 40°39' W 074°07'0 0.0
2017-Dec-02 02:30N 40°38' W 074°07'0 0.0
2017-Dec-02 02:00N 40°39' W 074°07'0 0.0
2017-Dec-02 01:30N 40°39' W 074°07'0 0.0
2017-Dec-02 01:00N 40°39' W 074°07'0 0.0
2017-Dec-02 00:30N 40°39' W 074°07'0 0.0
2017-Dec-02 00:00N 40°39' W 074°07'0 0.0
2017-Dec-01 23:30N 40°39' W 074°07'0 0.0
2017-Dec-01 23:00N 40°39' W 074°07'0 0.0
2017-Dec-01 22:30N 40°39' W 074°07'0 0.0
2017-Dec-01 22:00N 40°39' W 074°07'0 0.0
2017-Dec-01 21:30N 40°39' W 074°07'0 0.0
2017-Dec-01 21:00N 40°39' W 074°07'0 0.0
2017-Dec-01 20:30N 40°39' W 074°07'0 0.0
2017-Dec-01 20:00N 40°39' W 074°07'0 0.0
2017-Dec-01 19:30N 40°39' W 074°07'0 0.1
2017-Dec-01 19:00N 40°39' W 074°07'3 5.0
2017-Dec-01 18:30N 40°40' W 074°04'0 0.1
2017-Dec-01 18:00N 40°40' W 074°04'2 3.2
2017-Dec-01 17:30N 40°40' W 074°02'0 0.1
2017-Dec-01 17:00N 40°40' W 074°02'  

Dump ship's entire track history